Time;durP1;ratioP1;P1;durP2;ratioP2;P2;SDS_P1;SDS_P2;PMS_P1;PMS_P2;Temp;Humidity;BMP_temperature;BMP_pressure;BME280_temperature;BME280_humidity;BME280_pressure;Samples;Min_cycle;Max_cycle;Signal;HPM_P1;HPM_P2
2022/04/10 00:00:12;;;;;;;110.40;98.53;;;4.20;96.30;;;;;;5019219;28;20048;-80
2022/04/10 00:02:39;;;;;;;111.93;99.18;;;4.20;96.30;;;;;;5035834;28;20061;-80
2022/04/10 00:05:07;;;;;;;111.35;98.47;;;4.20;96.20;;;;;;5018934;28;20053;-80
2022/04/10 00:07:35;;;;;;;;;;;4.20;96.20;;;;;;5035623;28;20525;-81
2022/04/10 00:10:02;;;;;;;111.07;98.20;;;4.20;96.10;;;;;;5019099;28;19932;-80
2022/04/10 00:12:29;;;;;;;110.60;98.55;;;4.20;96.10;;;;;;5018814;28;20054;-81
2022/04/10 00:14:56;;;;;;;109.18;97.78;;;4.30;96.00;;;;;;5020098;28;20585;-80
2022/04/10 00:17:23;;;;;;;111.55;99.32;;;4.30;95.90;;;;;;5038390;28;20081;-81
2022/04/10 00:19:49;;;;;;;110.22;98.18;;;4.20;95.90;;;;;;5022083;28;20045;-81
2022/04/10 00:22:16;;;;;;;108.18;96.78;;;4.20;96.00;;;;;;5022224;28;20084;-81
2022/04/10 00:24:45;;;;;;;110.30;98.45;;;4.20;96.00;;;;;;5022139;28;20057;-81
2022/04/10 00:27:13;;;;;;;111.32;99.40;;;4.20;96.10;;;;;;5038524;28;20574;-80
2022/04/10 00:29:41;;;;;;;110.28;98.60;;;4.10;95.90;;;;;;5021764;28;20069;-81
2022/04/10 00:32:08;;;;;;;111.15;99.18;;;4.20;96.00;;;;;;5021948;28;20497;-80
2022/04/10 00:34:35;;;;;;;110.93;99.28;;;4.20;96.00;;;;;;5022321;28;20042;-80
2022/04/10 00:37:02;;;;;;;111.07;99.15;;;4.10;96.00;;;;;;5021640;28;20554;-81
2022/04/10 00:39:29;;;;;;;110.65;98.50;;;4.10;96.00;;;;;;5021772;28;20107;-80
2022/04/10 00:41:57;;;;;;;111.25;98.95;;;4.10;96.10;;;;;;5021948;28;20139;-80
2022/04/10 00:44:24;;;;;;;110.75;98.50;;;4.10;96.10;;;;;;5021788;28;20543;-81
2022/04/10 00:46:51;;;;;;;110.20;98.53;;;4.10;96.20;;;;;;5021430;28;20053;-80
2022/04/10 00:49:19;;;;;;;109.40;97.68;;;4.10;96.20;;;;;;5038135;28;20049;-80
2022/04/10 00:51:47;;;;;;;112.45;100.55;;;4.10;96.20;;;;;;5021114;28;20060;-80
2022/04/10 00:54:16;;;;;;;112.20;99.72;;;4.10;96.20;;;;;;5021579;28;20053;-80
2022/04/10 00:56:44;;;;;;;111.53;99.45;;;4.10;96.30;;;;;;5021542;28;20053;-79
2022/04/10 00:59:13;;;;;;;111.80;99.85;;;4.20;96.30;;;;;;5021194;28;20104;-80
2022/04/10 01:01:44;;;;;;;111.72;99.28;;;4.20;96.30;;;;;;5021550;28;20054;-80
2022/04/10 01:04:12;;;;;;;113.03;99.47;;;4.10;96.30;;;;;;5021501;28;20061;-80
2022/04/10 01:06:40;;;;;;;113.00;100.72;;;4.20;96.40;;;;;;5021388;28;20042;-80
2022/04/10 01:09:07;;;;;;;;;;;4.20;96.40;;;;;;5021658;28;20058;-80
2022/04/10 01:11:35;;;;;;;111.97;99.00;;;4.20;96.40;;;;;;5021849;28;20011;-80
2022/04/10 01:14:04;;;;;;;113.57;100.43;;;4.20;96.30;;;;;;5021318;28;20120;-80
2022/04/10 01:16:32;;;;;;;112.45;99.60;;;4.20;96.30;;;;;;5055770;28;20049;-80
2022/04/10 01:19:01;;;;;;;117.43;100.15;;;4.30;96.30;;;;;;5020633;28;20543;-80
2022/04/10 01:21:31;;;;;;;112.95;98.65;;;4.30;96.30;;;;;;5021106;28;20049;-80
2022/04/10 01:24:04;;;;;;;112.25;100.32;;;4.30;96.30;;;;;;5020999;28;20104;-80
2022/04/10 01:26:31;;;;;;;113.55;101.10;;;4.30;96.30;;;;;;5020344;28;20103;-80
2022/04/10 01:29:01;;;;;;;115.60;99.47;;;4.30;96.30;;;;;;5020397;28;20054;-81
2022/04/10 01:31:32;;;;;;;113.97;100.88;;;4.30;96.30;;;;;;5020453;28;20052;-80
2022/04/10 01:34:01;;;;;;;114.40;101.25;;;4.30;96.20;;;;;;5020041;28;20049;-80
2022/04/10 01:36:29;;;;;;;111.95;99.68;;;4.40;96.20;;;;;;5020903;28;20073;-80
2022/04/10 01:38:59;;;;;;;112.20;99.78;;;4.30;96.20;;;;;;5020832;28;20499;-80
2022/04/10 01:41:30;;;;;;;113.65;98.65;;;4.30;96.20;;;;;;5020993;28;20053;-80
2022/04/10 01:44:00;;;;;;;112.30;99.80;;;4.30;96.20;;;;;;5020854;28;20046;-80
2022/04/10 01:46:29;;;;;;;112.13;98.63;;;4.30;96.30;;;;;;5020622;28;20100;-80
2022/04/10 01:48:57;;;;;;;112.05;99.28;;;4.30;96.30;;;;;;5020414;28;21074;-80
2022/04/10 01:51:24;;;;;;;111.68;99.80;;;4.30;96.30;;;;;;5019999;28;20132;-80
2022/04/10 01:53:53;;;;;;;113.05;100.15;;;4.30;96.20;;;;;;5020574;28;20046;-81
2022/04/10 01:56:20;;;;;;;112.05;99.82;;;4.20;96.30;;;;;;5020620;28;20046;-80
2022/04/10 01:58:50;;;;;;;112.15;100.00;;;4.20;96.30;;;;;;5020476;28;20052;-80
2022/04/10 02:01:18;;;;;;;112.13;100.25;;;4.20;96.30;;;;;;5020194;28;20864;-80
2022/04/10 02:03:46;;;;;;;111.25;99.03;;;4.20;96.30;;;;;;5020657;28;20161;-80
2022/04/10 02:06:14;;;;;;;112.32;99.90;;;4.20;96.30;;;;;;5020149;28;20081;-80
2022/04/10 02:08:43;;;;;;;112.28;99.05;;;4.20;96.20;;;;;;5019858;28;20054;-80
2022/04/10 02:11:12;;;;;;;112.40;99.93;;;4.20;96.20;;;;;;5020170;28;20049;-80
2022/04/10 02:13:40;;;;;;;111.90;99.78;;;4.20;96.10;;;;;;5020158;28;20053;-80
2022/04/10 02:16:11;;;;;;;;;;;4.20;96.20;;;;;;5020877;28;20041;-80
2022/04/10 02:18:38;;;;;;;111.68;99.65;;;4.10;96.10;;;;;;5020219;28;19925;-80
2022/04/10 02:21:05;;;;;;;112.45;100.25;;;4.10;96.10;;;;;;5020276;28;20523;-81
2022/04/10 02:23:32;;;;;;;113.47;99.78;;;4.10;96.10;;;;;;5019720;28;20045;-80
2022/04/10 02:26:00;;;;;;;112.10;99.90;;;4.10;96.10;;;;;;5037067;28;20087;-80
2022/04/10 02:28:27;;;;;;;112.65;100.03;;;4.10;96.10;;;;;;5020000;28;20057;-81
2022/04/10 02:30:54;;;;;;;111.75;99.45;;;4.10;96.10;;;;;;5019845;28;20108;-80
2022/04/10 02:33:24;;;;;;;111.13;99.13;;;4.00;96.10;;;;;;5036096;28;20153;-80
2022/04/10 02:35:51;;;;;;;113.00;100.70;;;4.00;96.10;;;;;;5020154;28;20096;-80
2022/04/10 02:38:21;;;;;;;111.43;99.65;;;4.00;96.00;;;;;;5018855;28;20055;-80
2022/04/10 02:40:47;;;;;;;112.95;99.88;;;4.00;96.00;;;;;;5020019;28;20079;-80
2022/04/10 02:43:15;;;;;;;111.45;99.65;;;4.00;96.00;;;;;;5019908;28;20057;-80
2022/04/10 02:45:46;;;;;;;111.22;99.43;;;4.00;96.00;;;;;;5020007;28;20591;-80
2022/04/10 02:48:14;;;;;;;112.72;100.40;;;4.00;96.00;;;;;;5019701;28;20136;-81
2022/04/10 02:50:42;;;;;;;;;;;4.00;96.10;;;;;;5020058;28;20057;-80
2022/04/10 02:53:09;;;;;;;112.45;99.82;;;4.00;96.00;;;;;;5020138;28;19924;-80
2022/04/10 02:55:37;;;;;;;111.57;99.28;;;3.90;96.00;;;;;;5019648;28;20053;-80
2022/04/10 02:58:04;;;;;;;111.50;99.32;;;3.90;96.00;;;;;;5019431;28;20053;-80
2022/04/10 03:00:31;;;;;;;110.10;97.78;;;3.90;96.00;;;;;;5019907;28;20147;-80
2022/04/10 03:02:58;;;;;;;112.30;100.15;;;3.90;96.00;;;;;;5019481;28;20107;-80
2022/04/10 03:05:25;;;;;;;112.22;100.03;;;3.90;96.00;;;;;;5035999;28;20057;-80
2022/04/10 03:07:53;;;;;;;110.43;98.65;;;3.90;96.00;;;;;;5019157;28;20855;-80
2022/04/10 03:10:21;;;;;;;113.85;100.03;;;4.00;96.10;;;;;;5019461;28;20073;-81
2022/04/10 03:12:48;;;;;;;111.85;98.22;;;3.90;96.00;;;;;;5019608;28;20504;-80
2022/04/10 03:15:15;;;;;;;111.90;99.55;;;4.00;96.00;;;;;;5019287;28;20103;-80
2022/04/10 03:17:42;;;;;;;111.20;99.32;;;3.90;96.10;;;;;;5019148;28;20058;-80
2022/04/10 03:20:11;;;;;;;110.90;98.68;;;3.90;96.10;;;;;;5019636;28;20527;-81
2022/04/10 03:22:39;;;;;;;111.00;98.75;;;3.90;96.10;;;;;;5019474;28;20053;-80
2022/04/10 03:25:09;;;;;;;114.70;98.85;;;3.90;96.20;;;;;;5019257;28;20073;-80
2022/04/10 03:27:37;;;;;;;110.88;98.95;;;3.90;96.20;;;;;;5018877;28;20103;-81
2022/04/10 03:30:05;;;;;;;;;;;3.90;96.30;;;;;;5019912;28;20117;-80
2022/04/10 03:32:32;;;;;;;111.38;99.32;;;3.90;96.20;;;;;;5019415;28;19925;-81
2022/04/10 03:34:59;;;;;;;111.28;99.30;;;3.90;96.20;;;;;;5019180;28;20132;-80
2022/04/10 03:37:26;;;;;;;112.07;100.32;;;3.90;96.20;;;;;;5019245;28;20053;-80
2022/04/10 03:39:54;;;;;;;111.68;99.95;;;3.90;96.30;;;;;;5019133;28;20060;-80
2022/04/10 03:42:22;;;;;;;109.63;98.13;;;3.90;96.30;;;;;;5019467;28;20057;-80
2022/04/10 03:44:49;;;;;;;112.15;100.10;;;3.90;96.20;;;;;;5019168;28;20057;-81
2022/04/10 03:47:16;;;;;;;110.45;98.63;;;3.90;96.20;;;;;;5018849;28;20050;-80
2022/04/10 03:49:44;;;;;;;110.68;98.85;;;3.90;96.20;;;;;;5021481;28;20084;-80
2022/04/10 03:52:11;;;;;;;111.43;99.22;;;4.00;96.30;;;;;;5022481;28;20054;-81
2022/04/10 03:54:38;;;;;;;109.07;97.57;;;4.00;96.10;;;;;;5039011;28;20060;-81
2022/04/10 03:57:06;;;;;;;109.72;98.10;;;4.00;96.10;;;;;;5022427;28;20477;-81
2022/04/10 03:59:35;;;;;;;110.43;98.82;;;4.00;96.20;;;;;;5022101;28;20104;-81
2022/04/10 04:02:03;;;;;;;110.78;98.75;;;4.00;96.20;;;;;;5022154;28;20046;-81
2022/04/10 04:04:30;;;;;;;110.13;98.50;;;4.00;96.10;;;;;;5022506;28;20826;-81
2022/04/10 04:06:58;;;;;;;110.57;99.07;;;4.00;96.30;;;;;;5038613;28;20049;-81
2022/04/10 04:09:27;;;;;;;110.07;98.65;;;4.00;96.40;;;;;;5022753;28;20049;-82
2022/04/10 04:11:54;;;;;;;110.70;99.05;;;4.00;96.40;;;;;;5022366;28;20052;-81
2022/04/10 04:14:22;;;;;;;110.05;98.65;;;4.00;96.40;;;;;;5022298;28;20502;-81
2022/04/10 04:16:51;;;;;;;110.45;98.93;;;4.00;96.50;;;;;;5022061;28;20053;-81
2022/04/10 04:19:18;;;;;;;110.20;98.50;;;3.90;96.60;;;;;;5021972;28;20080;-81
2022/04/10 04:21:45;;;;;;;110.32;98.90;;;3.80;96.60;;;;;;5021749;28;20076;-81
2022/04/10 04:24:12;;;;;;;110.05;98.43;;;3.80;96.70;;;;;;5022048;28;20494;-81
2022/04/10 04:26:40;;;;;;;110.60;99.13;;;3.70;96.80;;;;;;5021744;28;20056;-81
2022/04/10 04:29:09;;;;;;;109.72;98.18;;;3.70;96.80;;;;;;5021255;28;20491;-81
2022/04/10 04:31:37;;;;;;;109.50;98.18;;;3.80;97.00;;;;;;5021468;28;20053;-80
2022/04/10 04:34:07;;;;;;;;;;;3.80;97.10;;;;;;5021968;28;20041;-81
2022/04/10 04:36:35;;;;;;;108.38;97.00;;;3.80;97.00;;;;;;5021951;28;20014;-80
2022/04/10 04:39:02;;;;;;;109.22;97.82;;;3.80;97.00;;;;;;5021602;28;20124;-81
2022/04/10 04:41:29;;;;;;;108.75;97.60;;;3.80;97.10;;;;;;5021543;28;20053;-81
2022/04/10 04:43:57;;;;;;;109.93;98.32;;;3.80;97.10;;;;;;5021423;28;20073;-80
2022/04/10 04:46:24;;;;;;;108.25;97.15;;;3.80;97.10;;;;;;5021724;28;20050;-81
2022/04/10 04:48:54;;;;;;;107.72;96.45;;;3.80;97.20;;;;;;5021241;28;20144;-81
2022/04/10 04:51:23;;;;;;;108.93;97.60;;;3.80;97.20;;;;;;5020960;28;20049;-81
2022/04/10 04:53:51;;;;;;;109.47;97.95;;;3.70;97.10;;;;;;5021443;28;20506;-81
2022/04/10 04:56:18;;;;;;;109.88;98.47;;;3.70;97.20;;;;;;5021264;28;20525;-81
2022/04/10 04:58:47;;;;;;;109.45;97.90;;;3.70;97.30;;;;;;5021282;28;20404;-80
2022/04/10 05:01:15;;;;;;;108.57;97.38;;;3.70;97.20;;;;;;5020779;28;20053;-81
2022/04/10 05:03:43;;;;;;;109.32;98.07;;;3.70;97.30;;;;;;5021211;28;20056;-81
2022/04/10 05:06:10;;;;;;;109.88;98.47;;;3.70;97.20;;;;;;5021123;28;20049;-81
2022/04/10 05:08:39;;;;;;;109.40;98.07;;;3.70;97.30;;;;;;5020945;28;20137;-81
2022/04/10 05:11:08;;;;;;;109.43;97.97;;;3.70;97.30;;;;;;5021183;28;20049;-81
2022/04/10 05:13:36;;;;;;;110.07;98.30;;;3.70;97.30;;;;;;5021222;28;20411;-81
2022/04/10 05:16:03;;;;;;;109.18;97.75;;;3.70;97.30;;;;;;5021310;28;20045;-81
2022/04/10 05:18:36;;;;;;;108.85;97.53;;;3.80;97.40;;;;;;5020881;28;20823;-81
2022/04/10 05:21:03;;;;;;;110.43;98.68;;;3.70;97.40;;;;;;5020840;28;20048;-81
2022/04/10 05:23:31;;;;;;;111.10;99.40;;;3.80;97.40;;;;;;5020519;28;20108;-80
2022/04/10 05:26:09;;;;;;;109.97;98.40;;;3.80;97.40;;;;;;5017216;28;20045;-80
2022/04/10 05:28:40;;;;;;;111.15;99.55;;;3.70;97.40;;;;;;5000787;28;20160;-80
2022/04/10 05:31:07;;;;;;;110.88;99.50;;;3.80;97.50;;;;;;5004667;28;20061;-80
2022/04/10 05:33:38;;;;;;;112.00;100.00;;;3.80;97.50;;;;;;5019358;28;20057;-79
2022/04/10 05:36:06;;;;;;;111.00;99.28;;;3.80;97.60;;;;;;5020353;28;20054;-81
2022/04/10 05:38:35;;;;;;;110.70;98.95;;;3.90;97.70;;;;;;5017343;28;20112;-81
2022/04/10 05:41:02;;;;;;;108.88;97.53;;;3.90;97.80;;;;;;5017580;28;20555;-81
2022/04/10 05:43:34;;;;;;;110.78;99.18;;;3.90;97.70;;;;;;5006539;28;20050;-81
2022/04/10 05:46:03;;;;;;;111.82;99.97;;;4.00;97.90;;;;;;5020883;28;20143;-81
2022/04/10 05:48:32;;;;;;;110.07;98.50;;;4.00;97.80;;;;;;5020234;28;20053;-81
2022/04/10 05:50:59;;;;;;;;;;;4.00;97.90;;;;;;5020570;28;20128;-80
2022/04/10 05:53:30;;;;;;;108.03;96.55;;;4.10;97.90;;;;;;5020726;28;19936;-81
2022/04/10 05:55:57;;;;;;;;;;;4.10;97.90;;;;;;5020974;28;20057;-82
2022/04/10 05:58:28;;;;;;;108.05;96.68;;;4.00;97.80;;;;;;5020843;28;19924;-81
2022/04/10 06:00:58;;;;;;;108.80;97.20;;;4.00;97.80;;;;;;5000936;28;20104;-81
2022/04/10 06:03:26;;;;;;;109.75;98.18;;;4.00;97.80;;;;;;5000751;28;20550;-81
2022/04/10 06:05:55;;;;;;;109.55;98.28;;;4.00;97.80;;;;;;5045197;28;20598;-82
2022/04/10 06:08:31;;;;;;;109.70;98.13;;;4.10;97.80;;;;;;5020110;28;20046;-80
2022/04/10 06:10:59;;;;;;;111.38;99.30;;;4.00;97.80;;;;;;5019950;28;20187;-81
2022/04/10 06:13:26;;;;;;;110.05;98.70;;;4.00;97.90;;;;;;5018707;28;20056;-81
2022/04/10 06:16:02;;;;;;;111.57;99.85;;;4.10;98.00;;;;;;5018943;28;20077;-82
2022/04/10 06:18:29;;;;;;;111.00;99.32;;;4.10;98.00;;;;;;5019837;28;20060;-81
2022/04/10 06:20:59;;;;;;;110.13;98.75;;;4.10;98.10;;;;;;5019847;28;20057;-81
2022/04/10 06:23:27;;;;;;;111.22;99.72;;;4.10;98.10;;;;;;5019512;28;20133;-81
2022/04/10 06:26:01;;;;;;;110.63;99.03;;;4.20;98.20;;;;;;5019474;28;20053;-80
2022/04/10 06:28:30;;;;;;;111.00;99.03;;;4.20;98.30;;;;;;5019834;28;20512;-81
2022/04/10 06:30:58;;;;;;;109.38;98.18;;;4.30;98.20;;;;;;5020121;28;20479;-81
2022/04/10 06:33:31;;;;;;;109.70;98.45;;;4.30;98.20;;;;;;5019513;28;20056;-81
2022/04/10 06:35:58;;;;;;;110.95;99.35;;;4.40;98.20;;;;;;5019986;28;20104;-81
2022/04/10 06:38:25;;;;;;;;;;;4.40;98.20;;;;;;5020061;28;20080;-81
2022/04/10 06:41:03;;;;;;;109.60;97.70;;;4.40;98.10;;;;;;5020117;28;20879;-81
2022/04/10 06:43:31;;;;;;;109.68;98.28;;;4.40;98.10;;;;;;5019899;28;20558;-80
2022/04/10 06:46:17;;;;;;;110.93;99.53;;;4.50;98.20;;;;;;5036736;28;20072;-80
2022/04/10 06:49:00;;;;;;;110.75;99.07;;;4.60;98.30;;;;;;5019724;28;20137;-80
2022/04/10 06:51:27;;;;;;;111.05;99.55;;;4.60;98.40;;;;;;5019160;28;20045;-79
2022/04/10 06:53:57;;;;;;;112.45;98.80;;;4.70;98.30;;;;;;5018952;28;20601;-80
2022/04/10 06:56:24;;;;;;;109.57;98.38;;;4.80;98.30;;;;;;5019406;28;20057;-80
2022/04/10 06:58:51;;;;;;;109.45;98.30;;;4.80;98.30;;;;;;4998830;28;20050;-81
2022/04/10 07:01:18;;;;;;;110.63;99.25;;;4.90;98.20;;;;;;4999238;28;20504;-80
2022/04/10 07:03:46;;;;;;;110.53;99.07;;;5.00;98.10;;;;;;4999874;28;20089;-83
2022/04/10 07:06:18;;;;;;;112.05;100.32;;;5.00;97.90;;;;;;5032094;28;20046;-82
2022/04/10 07:08:45;;;;;;;109.47;98.28;;;5.10;97.90;;;;;;5004997;28;20052;-80
2022/04/10 07:11:12;;;;;;;109.88;98.53;;;5.10;97.80;;;;;;5019218;28;20064;-79
2022/04/10 07:13:40;;;;;;;110.82;99.13;;;5.20;97.90;;;;;;5018913;28;20049;-80
2022/04/10 07:16:08;;;;;;;108.85;97.88;;;5.20;97.90;;;;;;5019705;28;20375;-79
2022/04/10 07:18:35;;;;;;;110.60;99.30;;;5.20;97.70;;;;;;5018979;28;20140;-80
2022/04/10 07:21:09;;;;;;;111.43;99.95;;;5.30;97.80;;;;;;5019393;28;20045;-82
2022/04/10 07:23:42;;;;;;;110.82;99.35;;;5.40;97.50;;;;;;5018888;28;20046;-82
2022/04/10 07:26:12;;;;;;;110.88;99.18;;;5.40;97.50;;;;;;5019395;28;20049;-82
2022/04/10 07:28:39;;;;;;;110.13;98.90;;;5.30;97.70;;;;;;5019069;28;20056;-82
2022/04/10 07:31:07;;;;;;;111.35;99.72;;;5.50;97.60;;;;;;5018784;28;20484;-82
2022/04/10 07:33:36;;;;;;;112.40;99.60;;;5.50;97.40;;;;;;5019069;28;20488;-81
2022/04/10 07:36:13;;;;;;;111.15;99.85;;;5.60;97.30;;;;;;5018875;28;20049;-81
2022/04/10 07:38:42;;;;;;;;;;;5.60;97.30;;;;;;5020416;28;20054;-79
2022/04/10 07:41:14;;;;;;;109.22;97.63;;;5.70;97.20;;;;;;5015782;28;19921;-83
2022/04/10 07:43:47;;;;;;;111.15;99.28;;;5.70;97.20;;;;;;5007522;28;20120;-83
2022/04/10 07:49:06;;;;;;;110.95;99.57;;;5.80;97.00;;;;;;5019042;28;20049;-83
2022/04/10 07:51:53;;;;;;;111.63;100.15;;;5.80;97.20;;;;;;5035111;28;20503;-83
2022/04/10 07:54:26;;;;;;;111.93;100.32;;;5.90;96.90;;;;;;5018620;28;20112;-82
2022/04/10 07:56:57;;;;;;;110.50;99.40;;;5.90;96.80;;;;;;5018622;28;20151;-81
2022/04/10 07:59:28;;;;;;;111.60;100.10;;;5.90;96.70;;;;;;5019382;28;20154;-82
2022/04/10 08:01:56;;;;;;;114.88;103.55;;;5.90;96.70;;;;;;5034913;28;20049;-81
2022/04/10 08:04:27;;;;;;;111.13;99.75;;;5.90;96.70;;;;;;5032082;28;20048;-83
2022/04/10 08:07:09;;;;;;;114.63;102.78;;;6.00;97.00;;;;;;5018485;28;20057;-83
2022/04/10 08:09:37;;;;;;;111.45;99.68;;;6.00;96.80;;;;;;5016181;28;20558;-83
2022/04/10 08:12:05;;;;;;;112.82;101.45;;;6.00;96.70;;;;;;5030077;28;20833;-83
2022/04/10 08:14:32;;;;;;;111.25;99.40;;;6.00;96.70;;;;;;5013745;28;20523;-84
2022/04/10 08:16:58;;;;;;;;;;;6.10;96.90;;;;;;5016007;28;20064;-83
2022/04/10 08:19:25;;;;;;;112.20;100.00;;;6.20;97.10;;;;;;5028920;28;20012;-79
2022/04/10 08:21:52;;;;;;;112.20;100.65;;;6.20;96.90;;;;;;5022339;28;20824;-81
2022/04/10 08:24:19;;;;;;;112.13;100.68;;;6.30;96.70;;;;;;5021028;28;20558;-81
2022/04/10 08:26:48;;;;;;;111.63;100.13;;;6.40;96.60;;;;;;5018388;28;20140;-81
2022/04/10 08:29:15;;;;;;;113.63;101.95;;;6.50;96.30;;;;;;5024764;28;20072;-81
2022/04/10 08:31:42;;;;;;;113.95;101.97;;;6.60;96.40;;;;;;5047394;28;20049;-81
2022/04/10 08:34:09;;;;;;;112.72;101.07;;;6.50;96.50;;;;;;5017971;28;20508;-82
2022/04/10 08:36:36;;;;;;;109.82;98.47;;;6.60;96.50;;;;;;5020743;28;20057;-81
2022/04/10 08:39:03;;;;;;;110.32;98.93;;;6.60;96.30;;;;;;5018131;28;20057;-81
2022/04/10 08:41:31;;;;;;;;;;;6.70;96.10;;;;;;5014875;28;20061;-81
2022/04/10 08:44:02;;;;;;;112.22;100.63;;;6.70;95.40;;;;;;5038404;28;19936;-81
2022/04/10 08:46:29;;;;;;;112.25;100.50;;;6.80;95.10;;;;;;5038057;28;20081;-81
2022/04/10 08:48:58;;;;;;;113.70;102.28;;;6.90;94.70;;;;;;5038067;28;20058;-81
2022/04/10 08:51:28;;;;;;;111.82;100.75;;;6.90;94.70;;;;;;5020705;28;20050;-81
2022/04/10 08:53:56;;;;;;;113.20;101.65;;;6.90;94.70;;;;;;5038446;28;20547;-79
2022/04/10 08:56:24;;;;;;;112.30;101.03;;;6.80;95.00;;;;;;5037913;28;20438;-81
2022/04/10 08:58:51;;;;;;;111.85;100.55;;;6.80;95.10;;;;;;5038100;28;20136;-82
2022/04/10 09:01:22;;;;;;;112.38;100.78;;;6.80;94.60;;;;;;5034437;28;20436;-83
2022/04/10 09:03:49;;;;;;;111.90;100.22;;;6.80;94.80;;;;;;5036003;28;20045;-84
2022/04/10 09:06:17;;;;;;;110.80;99.30;;;6.80;94.70;;;;;;5023487;28;20053;-85
2022/04/10 09:08:44;;;;;;;112.15;100.63;;;6.80;95.00;;;;;;5038933;28;20049;-85
2022/04/10 09:11:12;;;;;;;112.60;100.82;;;6.80;94.90;;;;;;5022022;28;20061;-85
2022/04/10 09:13:41;;;;;;;111.90;100.32;;;6.80;95.00;;;;;;5021732;28;20121;-81
2022/04/10 09:16:11;;;;;;;112.78;101.28;;;6.90;95.00;;;;;;5021195;28;20096;-83
2022/04/10 09:18:50;;;;;;;113.68;101.78;;;6.90;95.10;;;;;;5020567;28;20148;-82
2022/04/10 09:21:20;;;;;;;111.70;100.07;;;7.00;94.10;;;;;;5021361;28;20135;-82
2022/04/10 09:23:55;;;;;;;111.75;100.35;;;7.10;93.70;;;;;;5020146;28;20045;-82
2022/04/10 09:26:23;;;;;;;110.47;99.32;;;7.10;94.20;;;;;;5020608;28;20081;-83
2022/04/10 09:28:51;;;;;;;109.53;98.40;;;7.10;94.60;;;;;;5020644;28;20573;-83
2022/04/10 09:31:32;;;;;;;110.68;99.75;;;7.20;94.80;;;;;;5036993;28;20140;-82
2022/04/10 09:34:02;;;;;;;110.47;99.03;;;7.20;95.20;;;;;;5021113;28;20108;-82
2022/04/10 09:36:37;;;;;;;110.13;98.90;;;7.30;95.20;;;;;;5053581;28;20073;-80
2022/04/10 09:39:07;;;;;;;110.50;99.45;;;7.30;94.80;;;;;;5036921;28;20081;-82
2022/04/10 09:41:35;;;;;;;109.85;98.55;;;7.40;94.80;;;;;;5037529;28;20084;-84
2022/04/10 09:44:20;;;;;;;109.72;98.57;;;7.50;94.90;;;;;;5053568;28;20050;-83
2022/04/10 09:46:58;;;;;;;110.63;99.32;;;7.60;94.30;;;;;;5047711;28;20555;-85
2022/04/10 09:49:32;;;;;;;110.88;99.50;;;7.60;94.40;;;;;;5020354;28;20128;-82
2022/04/10 09:52:04;;;;;;;111.22;99.97;;;7.70;94.20;;;;;;5036258;28;20480;-82
2022/04/10 09:54:40;;;;;;;109.07;98.22;;;7.80;94.50;;;;;;5019801;28;20049;-81
2022/04/10 09:57:10;;;;;;;109.57;98.47;;;7.80;93.00;;;;;;5020425;28;20053;-82
2022/04/10 09:59:40;;;;;;;109.70;98.63;;;7.90;92.30;;;;;;5036921;28;20104;-82
2022/04/10 10:02:08;;;;;;;109.80;98.78;;;8.00;91.60;;;;;;5036982;28;20049;-82
2022/04/10 10:04:38;;;;;;;108.57;97.50;;;8.00;91.60;;;;;;5036913;28;20520;-83
2022/04/10 10:07:07;;;;;;;110.22;99.22;;;8.00;91.20;;;;;;5036782;28;20490;-82
2022/04/10 10:09:34;;;;;;;109.03;98.35;;;8.10;91.50;;;;;;5020541;28;20049;-82
2022/04/10 10:12:01;;;;;;;110.68;99.78;;;8.10;91.60;;;;;;5037049;28;20397;-82
2022/04/10 10:14:31;;;;;;;110.60;99.40;;;8.10;92.10;;;;;;5019041;28;20530;-84
2022/04/10 10:16:59;;;;;;;110.93;100.00;;;8.10;92.20;;;;;;5013364;28;20059;-81
2022/04/10 10:19:26;;;;;;;109.65;98.57;;;8.20;92.30;;;;;;5036564;28;20053;-82
2022/04/10 10:21:55;;;;;;;111.10;100.30;;;8.20;92.60;;;;;;5036602;28;20053;-82
2022/04/10 10:24:25;;;;;;;112.60;101.30;;;8.30;92.90;;;;;;5035900;28;20131;-81
2022/04/10 10:27:23;;;;;;;111.18;100.07;;;8.30;93.00;;;;;;5019778;28;20053;-82
2022/04/10 10:30:08;;;;;;;109.47;98.68;;;8.40;93.10;;;;;;5034347;28;20124;-82
2022/04/10 10:32:41;;;;;;;109.55;98.75;;;8.50;93.50;;;;;;5019469;28;20562;-84
2022/04/10 10:35:11;;;;;;;110.25;99.35;;;8.50;92.90;;;;;;5036600;28;20053;-84
2022/04/10 10:37:52;;;;;;;109.25;98.25;;;8.50;92.50;;;;;;5036560;28;20504;-83
2022/04/10 10:40:20;;;;;;;109.85;99.28;;;8.60;91.50;;;;;;5036676;28;20057;-81
2022/04/10 10:42:49;;;;;;;110.13;99.38;;;8.60;90.90;;;;;;5020299;28;20045;-85
2022/04/10 10:45:37;;;;;;;110.82;98.97;;;8.70;91.10;;;;;;5020396;28;20100;-85
2022/04/10 10:48:26;;;;;;;110.43;99.65;;;8.70;90.80;;;;;;5020193;28;20136;-83
2022/04/10 10:50:54;;;;;;;110.20;99.43;;;8.80;91.10;;;;;;5019458;28;20088;-82
2022/04/10 10:53:44;;;;;;;111.50;100.50;;;8.90;90.80;;;;;;5019863;28;20057;-83
2022/04/10 10:56:19;;;;;;;112.05;100.93;;;8.90;89.10;;;;;;5036197;28;20128;-83
2022/04/10 10:58:48;;;;;;;109.03;98.22;;;8.90;89.40;;;;;;5035266;28;20061;-85
2022/04/10 11:01:19;;;;;;;111.45;99.78;;;9.00;90.30;;;;;;5020525;28;20133;-86
2022/04/10 11:04:04;;;;;;;109.95;99.05;;;9.00;90.60;;;;;;5020208;28;20063;-86
2022/04/10 11:06:33;;;;;;;111.03;100.35;;;9.10;90.20;;;;;;5007614;28;20536;-86
2022/04/10 11:09:25;;;;;;;110.97;100.38;;;9.10;87.80;;;;;;5033209;28;20061;-81
2022/04/10 11:11:52;;;;;;;109.20;98.47;;;9.10;87.60;;;;;;5016893;28;20161;-86
2022/04/10 11:14:33;;;;;;;108.55;98.05;;;9.20;88.90;;;;;;5033144;28;20054;-84
2022/04/10 11:17:09;;;;;;;110.40;99.85;;;9.30;88.00;;;;;;5016338;28;20524;-83
2022/04/10 11:19:37;;;;;;;112.25;101.18;;;9.30;86.60;;;;;;5016021;28;20049;-85
2022/04/10 11:22:07;;;;;;;109.15;98.65;;;9.30;86.70;;;;;;5015115;28;20072;-85
2022/04/10 11:24:37;;;;;;;111.22;100.35;;;9.40;87.20;;;;;;5019603;28;20049;-85
2022/04/10 11:27:12;;;;;;;111.03;100.13;;;9.40;84.70;;;;;;5019432;28;20516;-85
2022/04/10 11:29:43;;;;;;;110.28;99.50;;;9.50;82.80;;;;;;5037149;28;20061;-86
2022/04/10 11:32:17;;;;;;;109.93;99.25;;;9.50;81.30;;;;;;5020463;28;20046;-86
2022/04/10 11:34:44;;;;;;;110.32;99.55;;;9.50;80.90;;;;;;5012880;28;20065;-86
2022/04/10 11:37:21;;;;;;;110.40;99.65;;;9.50;83.20;;;;;;5016765;28;20117;-84
2022/04/10 11:39:56;;;;;;;110.65;99.63;;;9.60;81.90;;;;;;5031608;28;20072;-85
2022/04/10 11:42:24;;;;;;;109.80;99.38;;;9.70;81.30;;;;;;5020031;28;20049;-84
2022/04/10 11:44:51;;;;;;;110.35;99.68;;;9.70;84.00;;;;;;5019694;28;20137;-83
2022/04/10 11:47:19;;;;;;;111.03;100.15;;;9.70;83.60;;;;;;5035575;28;20542;-84
2022/04/10 11:49:51;;;;;;;111.25;100.05;;;9.70;84.90;;;;;;5015613;28;20049;-85
2022/04/10 11:52:21;;;;;;;110.97;100.18;;;9.80;86.10;;;;;;4999722;28;20459;-84
2022/04/10 11:54:51;;;;;;;112.90;101.80;;;9.80;86.70;;;;;;4999285;28;20050;-84
2022/04/10 11:57:19;;;;;;;113.70;102.88;;;9.90;86.40;;;;;;5015742;28;20564;-84
2022/04/10 11:59:46;;;;;;;113.15;101.95;;;9.90;87.30;;;;;;4999976;28;20131;-85
2022/04/10 12:02:15;;;;;;;111.38;100.68;;;10.00;84.50;;;;;;4999693;28;20053;-85
2022/04/10 12:04:43;;;;;;;115.40;104.25;;;10.10;82.80;;;;;;5027677;28;20116;-85
2022/04/10 12:07:15;;;;;;;109.90;99.38;;;10.20;84.90;;;;;;5034639;28;20045;-84
2022/04/10 12:09:43;;;;;;;114.18;103.25;;;10.20;80.90;;;;;;5032742;28;20064;-83
2022/04/10 12:12:12;;;;;;;110.65;99.72;;;10.20;83.10;;;;;;5019437;28;20116;-83
2022/04/10 12:14:39;;;;;;;112.15;101.63;;;10.30;85.70;;;;;;5018631;28;20140;-84
2022/04/10 12:17:11;;;;;;;109.88;99.55;;;10.30;85.60;;;;;;5002386;28;20590;-85
2022/04/10 12:19:39;;;;;;;111.85;101.20;;;10.40;81.50;;;;;;5010999;28;20054;-82
2022/04/10 12:22:07;;;;;;;111.32;101.05;;;10.40;77.60;;;;;;5021975;28;20542;-82
2022/04/10 12:24:35;;;;;;;109.53;99.22;;;10.40;80.10;;;;;;5037549;28;20064;-81
2022/04/10 12:27:05;;;;;;;110.22;99.88;;;10.40;79.90;;;;;;5038094;28;20610;-81
2022/04/10 12:29:35;;;;;;;108.30;98.18;;;10.40;76.30;;;;;;5038840;28;20045;-82
2022/04/10 12:32:02;;;;;;;110.50;99.88;;;10.50;75.80;;;;;;5021858;28;20046;-82
2022/04/10 12:34:33;;;;;;;108.85;98.65;;;10.50;75.30;;;;;;5038452;28;20120;-82
2022/04/10 12:37:07;;;;;;;111.47;100.72;;;10.50;76.10;;;;;;5021420;28;20053;-81
2022/04/10 12:39:35;;;;;;;111.72;100.70;;;10.50;73.20;;;;;;5021967;28;20176;-82
2022/04/10 12:42:03;;;;;;;109.47;99.18;;;10.50;73.20;;;;;;5021738;28;20526;-82